Time;durP1;ratioP1;P1;durP2;ratioP2;P2;SDS_P1;SDS_P2;PMS_P1;PMS_P2;Temp;Humidity;BMP_temperature;BMP_pressure;BME280_temperature;BME280_humidity;BME280_pressure;Samples;Min_cycle;Max_cycle;Signal;HPM_P1;HPM_P2
2023/10/15 00:00:21;;;;;;;11.98;7.38;;;410.10;2355.20;;;;;;5079981;28;20052;-58
2023/10/15 00:02:48;;;;;;;13.57;7.70;;;410.10;2355.20;;;;;;5084483;28;20645;-59
2023/10/15 00:05:21;;;;;;;10.95;6.85;;;410.20;2355.20;;;;;;5078805;28;20026;-57
2023/10/15 00:07:48;;;;;;;16.15;7.97;;;410.10;2355.20;;;;;;5081287;28;20024;-59
2023/10/15 00:10:21;;;;;;;13.93;7.57;;;410.20;2355.20;;;;;;5082109;28;20489;-59
2023/10/15 00:12:49;;;;;;;14.63;7.50;;;410.20;2355.20;;;;;;5073634;28;20021;-59
2023/10/15 00:15:20;;;;;;;12.00;8.15;;;410.20;2355.20;;;;;;5076604;28;20034;-57
2023/10/15 00:17:47;;;;;;;13.05;6.68;;;410.20;2355.20;;;;;;5082957;28;20028;-57
2023/10/15 00:20:16;;;;;;;10.48;7.15;;;410.20;2355.20;;;;;;5073080;28;20263;-58
2023/10/15 00:22:43;;;;;;;12.00;6.97;;;410.20;2355.20;;;;;;5073615;28;20039;-57
2023/10/15 00:25:12;;;;;;;10.15;7.35;;;410.10;2355.20;;;;;;5081104;28;20474;-58
2023/10/15 00:27:39;;;;;;;21.52;7.78;;;410.10;2355.20;;;;;;5077902;28;20102;-58
2023/10/15 00:30:12;;;;;;;12.63;7.13;;;410.10;2355.20;;;;;;5077327;28;20532;-57
2023/10/15 00:32:43;;;;;;;9.50;6.30;;;410.20;2355.20;;;;;;5077057;28;20044;-58
2023/10/15 00:35:13;;;;;;;12.13;7.40;;;410.20;2355.20;;;;;;5078698;28;20081;-58
2023/10/15 00:37:58;;;;;;;11.98;7.03;;;410.10;2355.20;;;;;;5082469;28;20044;-59
2023/10/15 00:40:27;;;;;;;13.65;7.13;;;410.00;2355.20;;;;;;5076247;28;20115;-58
2023/10/15 00:42:54;;;;;;;11.52;7.40;;;410.00;2355.20;;;;;;5077638;28;20040;-58
2023/10/15 00:45:20;;;;;;;9.70;6.80;;;410.00;2355.20;;;;;;5081814;28;20027;-63
2023/10/15 00:48:07;;;;;;;12.23;7.40;;;410.00;2355.20;;;;;;5075125;28;20031;-60
2023/10/15 00:50:43;;;;;;;12.63;7.97;;;410.00;2355.20;;;;;;5056596;28;20112;-58
2023/10/15 00:53:24;;;;;;;11.98;8.50;;;409.90;2355.20;;;;;;5081238;28;20031;-57
2023/10/15 00:56:10;;;;;;;12.38;7.55;;;409.90;2355.20;;;;;;5074289;28;20051;-58
2023/10/15 01:03:55;;;;;;;9.73;7.38;;;409.70;2355.20;;;;;;5072886;28;20056;-57
2023/10/15 01:06:35;;;;;;;10.95;7.78;;;409.70;2355.20;;;;;;5081721;28;20027;-58
2023/10/15 01:09:09;;;;;;;14.52;8.25;;;409.70;2355.20;;;;;;5082571;28;20489;-56
2023/10/15 01:11:38;;;;;;;9.85;7.55;;;409.60;2355.20;;;;;;5080621;28;20385;-58
2023/10/15 01:14:05;;;;;;;12.55;7.65;;;409.60;2355.20;;;;;;5077728;28;20040;-58
2023/10/15 01:16:36;;;;;;;12.18;7.72;;;409.60;2355.20;;;;;;5073541;28;20024;-57
2023/10/15 01:21:57;;;;;;;12.27;8.00;;;384.90;2329.60;;;;;;5080715;28;20101;-57
2023/10/15 01:24:27;;;;;;;12.85;7.15;;;384.80;2329.60;;;;;;5072541;28;20035;-57
2023/10/15 01:27:00;;;;;;;11.77;6.53;;;384.90;2329.60;;;;;;5074310;28;20485;-57
2023/10/15 01:29:29;;;;;;;16.42;8.40;;;384.90;2329.60;;;;;;5079457;28;20052;-56
2023/10/15 01:32:03;;;;;;;14.95;8.23;;;384.90;2329.60;;;;;;5077055;28;20078;-58
2023/10/15 01:34:37;;;;;;;14.02;6.25;;;384.90;2329.60;;;;;;5078339;28;20107;-58
2023/10/15 01:37:15;;;;;;;11.63;7.88;;;409.60;2355.20;;;;;;5071673;28;20037;-59
2023/10/15 01:39:47;;;;;;;13.32;7.03;;;409.60;2355.20;;;;;;5077413;28;20024;-58
2023/10/15 01:45:07;;;;;;;11.57;7.72;;;409.60;2355.20;;;;;;5078147;28;20568;-59
2023/10/15 01:47:35;;;;;;;10.73;7.47;;;409.60;2355.20;;;;;;5070982;28;20510;-58
2023/10/15 01:50:08;;;;;;;12.50;7.72;;;409.60;2355.20;;;;;;5082906;28;20058;-57
2023/10/15 01:52:41;;;;;;;12.77;7.72;;;384.90;2329.60;;;;;;5075862;28;20600;-58
2023/10/15 01:55:07;;;;;;;13.10;6.70;;;384.80;2329.60;;;;;;5075742;28;20363;-58
2023/10/15 01:57:36;;;;;;;10.95;6.63;;;384.80;2329.60;;;;;;5076268;28;20101;-59
2023/10/15 02:00:50;;;;;;;10.40;7.63;;;384.80;2329.60;;;;;;5073117;28;20047;-57
2023/10/15 02:02:53;;;;;;;13.90;6.85;;;384.70;2329.60;;;;;;5067873;28;20076;-57
2023/10/15 02:05:28;;;;;;;10.32;8.00;;;384.70;2329.60;;;;;;5072719;28;20029;-60
2023/10/15 02:07:56;;;;;;;10.02;7.40;;;384.70;2329.60;;;;;;5076066;28;20116;-59
2023/10/15 02:10:23;;;;;;;15.50;7.47;;;384.70;2329.60;;;;;;5080731;28;20062;-57
2023/10/15 02:12:59;;;;;;;13.73;8.43;;;384.60;2329.60;;;;;;5079735;28;20017;-57
2023/10/15 02:15:25;;;;;;;16.13;7.32;;;384.60;2329.60;;;;;;5076871;28;20363;-58
2023/10/15 02:17:54;;;;;;;13.88;7.50;;;384.60;2329.60;;;;;;5080781;28;20499;-57
2023/10/15 02:20:42;;;;;;;11.07;7.35;;;384.40;2329.60;;;;;;5076982;28;20079;-59
2023/10/15 02:23:08;;;;;;;10.63;7.13;;;384.30;2329.60;;;;;;5074833;28;20032;-59
2023/10/15 02:25:37;;;;;;;11.88;6.57;;;384.40;2329.60;;;;;;5082764;28;20023;-58
2023/10/15 02:28:03;;;;;;;16.70;7.55;;;384.50;2329.60;;;;;;5076815;28;20055;-58
2023/10/15 02:30:32;;;;;;;14.57;6.70;;;384.50;2329.60;;;;;;5080648;28;20109;-56
2023/10/15 02:33:01;;;;;;;11.13;7.28;;;384.60;2329.60;;;;;;5082485;28;20044;-57
2023/10/15 02:35:32;;;;;;;11.18;7.13;;;384.60;2329.60;;;;;;5078685;28;20611;-59
2023/10/15 02:37:59;;;;;;;10.73;6.15;;;384.70;2329.60;;;;;;5077128;28;20036;-56
2023/10/15 02:40:35;;;;;;;11.48;6.43;;;384.70;2329.60;;;;;;5074832;28;20029;-57
2023/10/15 02:43:06;;;;;;;9.98;6.57;;;384.80;2329.60;;;;;;5076626;28;20027;-57
2023/10/15 02:45:35;;;;;;;10.63;6.75;;;384.80;2329.60;;;;;;5080440;28;20114;-57
2023/10/15 02:48:09;;;;;;;9.50;6.78;;;384.80;2329.60;;;;;;5079017;28;20030;-57
2023/10/15 02:50:35;;;;;;;11.70;6.70;;;384.70;2329.60;;;;;;5077295;28;20062;-57
2023/10/15 02:53:04;;;;;;;12.40;6.38;;;384.70;2329.60;;;;;;5085068;28;20028;-57
2023/10/15 02:55:37;;;;;;;11.45;7.70;;;384.60;2329.60;;;;;;5074782;28;20483;-57
2023/10/15 02:58:13;;;;;;;11.70;7.93;;;384.50;2329.60;;;;;;5075898;28;20551;-57
2023/10/15 03:00:41;;;;;;;10.77;7.38;;;384.30;2329.60;;;;;;5080580;28;20046;-57
2023/10/15 03:03:15;;;;;;;15.60;8.25;;;384.40;2329.60;;;;;;5078056;28;20439;-59
2023/10/15 03:05:42;;;;;;;14.48;7.75;;;384.40;2329.60;;;;;;5056986;28;20024;-58
2023/10/15 03:08:13;;;;;;;12.52;8.00;;;384.30;2329.60;;;;;;5081827;28;20095;-58
2023/10/15 03:10:55;;;;;;;10.95;7.50;;;384.30;2329.60;;;;;;5080137;28;20032;-57
2023/10/15 03:13:21;;;;;;;16.10;8.18;;;384.30;2329.60;;;;;;5078389;28;20451;-60
2023/10/15 03:15:50;;;;;;;12.15;7.82;;;384.30;2329.60;;;;;;5085056;28;20103;-59
2023/10/15 03:18:23;;;;;;;11.82;6.88;;;384.20;2329.60;;;;;;5080343;28;20064;-59
2023/10/15 03:20:50;;;;;;;12.60;7.18;;;384.20;2329.60;;;;;;5079615;28;20063;-59
2023/10/15 03:23:19;;;;;;;12.02;7.50;;;384.20;2329.60;;;;;;5086339;28;20024;-59
2023/10/15 03:25:57;;;;;;;11.13;7.28;;;384.20;2329.60;;;;;;5085526;28;20020;-57
2023/10/15 03:28:24;;;;;;;18.85;7.25;;;384.10;2329.60;;;;;;5079854;28;20508;-59
2023/10/15 03:31:00;;;;;;;11.52;8.38;;;384.10;2329.60;;;;;;5077354;28;20037;-58
2023/10/15 03:33:30;;;;;;;11.52;7.07;;;384.20;2329.60;;;;;;5084094;28;20024;-58
2023/10/15 03:36:03;;;;;;;14.27;8.10;;;384.30;2329.60;;;;;;5079721;28;20028;-59
2023/10/15 03:38:34;;;;;;;12.68;7.90;;;384.30;2329.60;;;;;;5078834;28;20174;-58
2023/10/15 03:41:11;;;;;;;14.95;7.70;;;384.20;2329.60;;;;;;5076925;28;20598;-57
2023/10/15 03:43:37;;;;;;;12.43;7.63;;;384.20;2329.60;;;;;;5079933;28;20055;-58
2023/10/15 03:46:19;;;;;;;10.48;8.00;;;384.20;2329.60;;;;;;5080498;28;20481;-58
2023/10/15 03:48:49;;;;;;;11.18;7.90;;;359.30;2329.60;;;;;;5075972;28;20036;-58
2023/10/15 03:51:20;;;;;;;10.63;7.05;;;384.40;2329.60;;;;;;5074441;28;20033;-58
2023/10/15 03:53:49;;;;;;;11.65;7.63;;;384.40;2329.60;;;;;;5079745;28;20049;-57
2023/10/15 03:56:28;;;;;;;15.30;8.02;;;384.50;2329.60;;;;;;5076291;28;20024;-58
2023/10/15 03:58:54;;;;;;;13.88;7.30;;;384.60;2329.60;;;;;;5076937;28;20036;-58
2023/10/15 04:01:20;;;;;;;12.20;6.68;;;384.60;2329.60;;;;;;5081035;28;20488;-57
2023/10/15 04:03:48;;;;;;;9.80;6.45;;;384.80;2329.60;;;;;;5084901;28;20020;-58
2023/10/15 04:06:16;;;;;;;9.35;6.50;;;384.90;2329.60;;;;;;5077245;28;20025;-57
2023/10/15 04:11:30;;;;;;;11.02;7.57;;;409.60;2355.20;;;;;;5081744;28;20051;-59
2023/10/15 04:13:57;;;;;;;11.15;6.70;;;384.80;2329.60;;;;;;5078444;28;20455;-57
2023/10/15 04:16:23;;;;;;;9.98;6.47;;;384.90;2329.60;;;;;;5082467;28;20115;-62
2023/10/15 04:18:49;;;;;;;9.45;6.95;;;384.90;2329.60;;;;;;5076288;28;20123;-59
2023/10/15 04:21:19;;;;;;;11.80;7.68;;;409.60;2355.20;;;;;;5081226;28;20527;-59
2023/10/15 04:23:52;;;;;;;11.80;6.75;;;409.60;2355.20;;;;;;5073015;28;20032;-63
2023/10/15 04:26:22;;;;;;;10.55;6.78;;;384.80;2329.60;;;;;;5077226;28;20028;-66
2023/10/15 04:28:52;;;;;;;13.60;7.28;;;384.60;2329.60;;;;;;5079059;28;20040;-58
2023/10/15 04:31:24;;;;;;;11.85;7.47;;;384.40;2329.60;;;;;;5081229;28;20063;-58
2023/10/15 04:33:51;;;;;;;11.15;6.38;;;384.40;2329.60;;;;;;5074966;28;20029;-58
2023/10/15 04:36:17;;;;;;;10.77;8.48;;;384.40;2329.60;;;;;;5080634;28;20035;-59
2023/10/15 04:38:43;;;;;;;11.07;7.80;;;384.30;2329.60;;;;;;5078689;28;20090;-59
2023/10/15 04:41:21;;;;;;;12.35;7.45;;;384.50;2329.60;;;;;;5079520;28;20466;-57
2023/10/15 04:43:47;;;;;;;16.77;6.95;;;384.60;2329.60;;;;;;5076086;28;20394;-56
2023/10/15 04:46:19;;;;;;;14.77;7.18;;;384.70;2329.60;;;;;;5082246;28;20043;-58
2023/10/15 04:48:50;;;;;;;10.52;6.35;;;384.90;2329.60;;;;;;5083437;28;20021;-57
2023/10/15 04:51:16;;;;;;;11.70;7.07;;;409.60;2355.20;;;;;;5079834;28;20043;-59
2023/10/15 04:53:49;;;;;;;9.13;6.72;;;384.90;2329.60;;;;;;5075395;28;20385;-57
2023/10/15 04:56:15;;;;;;;10.00;5.80;;;409.60;2355.20;;;;;;5088645;28;20423;-57
2023/10/15 04:58:41;;;;;;;9.07;6.85;;;409.60;2355.20;;;;;;5071838;28;20367;-58
2023/10/15 05:01:08;;;;;;;14.73;7.30;;;409.60;2355.20;;;;;;5082416;28;20035;-57
2023/10/15 05:03:34;;;;;;;12.32;6.72;;;384.90;2329.60;;;;;;5072631;28;20043;-56
2023/10/15 05:06:02;;;;;;;10.85;7.47;;;384.80;2329.60;;;;;;5074321;28;20055;-57
2023/10/15 05:08:28;;;;;;;11.23;7.38;;;384.90;2329.60;;;;;;5076057;28;20107;-57
2023/10/15 05:10:54;;;;;;;16.08;7.78;;;384.80;2329.60;;;;;;5079798;28;20290;-59
2023/10/15 05:13:20;;;;;;;12.02;6.95;;;409.60;2355.20;;;;;;5078389;28;20032;-58
2023/10/15 05:15:49;;;;;;;12.57;7.35;;;409.60;2355.20;;;;;;5077906;28;20070;-58
2023/10/15 05:18:15;;;;;;;12.88;7.65;;;409.70;2355.20;;;;;;5079930;28;20397;-59
2023/10/15 05:20:47;;;;;;;10.07;6.13;;;409.80;2355.20;;;;;;5078833;28;20090;-59
2023/10/15 05:23:13;;;;;;;12.77;6.75;;;409.90;2355.20;;;;;;5076570;28;20071;-58
2023/10/15 05:25:42;;;;;;;8.90;6.53;;;410.00;2355.20;;;;;;5082836;28;20028;-57
2023/10/15 05:28:08;;;;;;;12.98;7.00;;;410.00;2355.20;;;;;;5077623;28;20078;-57
2023/10/15 05:30:34;;;;;;;9.13;6.70;;;409.90;2355.20;;;;;;5078665;28;20040;-58
2023/10/15 05:33:01;;;;;;;9.57;7.05;;;410.00;2355.20;;;;;;5081973;28;20028;-56
2023/10/15 05:35:29;;;;;;;12.15;7.03;;;410.00;2355.20;;;;;;5060466;28;20452;-57
2023/10/15 05:37:55;;;;;;;13.30;7.03;;;410.00;2355.20;;;;;;5078557;28;20512;-56
2023/10/15 05:40:21;;;;;;;11.70;7.70;;;410.00;2355.20;;;;;;5075654;28;20024;-58
2023/10/15 05:42:48;;;;;;;10.68;6.40;;;410.00;2355.20;;;;;;5075027;28;20052;-58
2023/10/15 05:45:15;;;;;;;13.82;7.32;;;410.20;2355.20;;;;;;5081391;28;20058;-58
2023/10/15 05:47:44;;;;;;;11.77;7.35;;;410.30;2355.20;;;;;;5073157;28;20032;-58
2023/10/15 05:50:12;;;;;;;10.85;6.47;;;410.40;2355.20;;;;;;5073377;28;20394;-58
2023/10/15 05:52:41;;;;;;;13.50;6.35;;;410.50;2355.20;;;;;;5078629;28;21709;-58
2023/10/15 05:55:07;;;;;;;11.68;7.72;;;410.40;2355.20;;;;;;5074144;28;20029;-58
2023/10/15 05:57:36;;;;;;;12.80;8.25;;;410.20;2355.20;;;;;;5073755;28;20024;-58
2023/10/15 06:00:26;;;;;;;12.50;7.13;;;409.90;2355.20;;;;;;5073760;28;20030;-58
2023/10/15 06:02:53;;;;;;;10.98;6.57;;;410.20;2355.20;;;;;;5071734;28;20037;-58
2023/10/15 06:05:21;;;;;;;13.60;7.53;;;410.50;2355.20;;;;;;5073759;28;20486;-58
2023/10/15 06:07:47;;;;;;;12.70;7.53;;;435.40;2355.20;;;;;;5073079;28;20036;-59
2023/10/15 06:10:14;;;;;;;14.10;8.50;;;435.40;2355.20;;;;;;5080632;28;20037;-59
2023/10/15 06:12:40;;;;;;;13.98;9.20;;;435.30;2355.20;;;;;;5080055;28;20052;-59
2023/10/15 06:15:08;;;;;;;10.77;7.70;;;435.40;2355.20;;;;;;5072486;28;20016;-59
2023/10/15 06:17:34;;;;;;;13.20;7.55;;;435.40;2355.20;;;;;;5082686;28;20032;-58
2023/10/15 06:20:12;;;;;;;12.40;7.25;;;410.50;2355.20;;;;;;5075241;28;20035;-59
2023/10/15 06:22:41;;;;;;;11.38;7.18;;;410.20;2355.20;;;;;;5079767;28;21375;-60
2023/10/15 06:25:08;;;;;;;11.35;7.72;;;410.20;2355.20;;;;;;5081574;28;20538;-59
2023/10/15 06:27:41;;;;;;;11.93;6.90;;;410.40;2355.20;;;;;;5082572;28;20027;-59
2023/10/15 06:30:14;;;;;;;12.23;7.38;;;435.20;2355.20;;;;;;5061193;28;20044;-57
2023/10/15 06:32:41;;;;;;;11.75;7.15;;;435.30;2355.20;;;;;;5083537;28;20031;-58
2023/10/15 06:35:07;;;;;;;15.60;13.93;;;435.30;2355.20;;;;;;5078946;28;20089;-59
2023/10/15 06:37:33;;;;;;;18.90;14.27;;;410.50;2355.20;;;;;;5084148;28;20036;-58
2023/10/15 06:40:00;;;;;;;17.08;11.82;;;435.30;2355.20;;;;;;5078571;28;20034;-58
2023/10/15 06:42:26;;;;;;;14.48;8.13;;;435.50;2355.20;;;;;;5078782;28;20075;-58
2023/10/15 06:44:52;;;;;;;13.27;7.95;;;435.90;2355.20;;;;;;5085255;28;20066;-57
2023/10/15 06:47:18;;;;;;;17.33;14.05;;;460.90;2380.80;;;;;;5080416;28;20028;-58
2023/10/15 06:49:44;;;;;;;32.67;29.58;;;461.10;2380.80;;;;;;5081487;28;20027;-58
2023/10/15 06:52:10;;;;;;;10.95;9.55;;;461.30;2380.80;;;;;;5078694;28;20067;-57
2023/10/15 06:54:36;;;;;;;13.35;8.02;;;461.50;2380.80;;;;;;5083177;28;20061;-57
2023/10/15 06:57:04;;;;;;;17.02;9.68;;;486.40;2380.80;;;;;;5076791;28;20504;-58
2023/10/15 06:59:31;;;;;;;20.48;12.63;;;486.80;2380.80;;;;;;5077663;28;20029;-58
2023/10/15 07:01:56;;;;;;;17.58;9.38;;;487.30;2380.80;;;;;;5082254;28;20036;-60
2023/10/15 07:04:24;;;;;;;13.88;9.40;;;512.30;2380.80;;;;;;5077678;28;20108;-58
2023/10/15 07:06:49;;;;;;;14.18;9.77;;;512.80;2380.80;;;;;;5081878;28;20024;-58
2023/10/15 07:09:18;;;;;;;14.82;9.18;;;512.90;2380.80;;;;;;5086277;28;20149;-58
2023/10/15 07:11:44;;;;;;;11.88;8.93;;;537.80;2406.40;;;;;;5084394;28;20043;-58
2023/10/15 07:14:09;;;;;;;18.48;10.25;;;512.90;2380.80;;;;;;5071067;28;20382;-58
2023/10/15 07:16:35;;;;;;;19.92;11.38;;;512.90;2380.80;;;;;;5087754;28;20027;-59
2023/10/15 07:19:01;;;;;;;24.02;14.68;;;512.70;2380.80;;;;;;5068976;28;20148;-58
2023/10/15 07:21:27;;;;;;;17.80;11.60;;;512.40;2380.80;;;;;;5082758;28;20031;-59
2023/10/15 07:23:53;;;;;;;16.58;11.43;;;512.20;2380.80;;;;;;5080955;28;20028;-59
2023/10/15 07:26:19;;;;;;;18.13;11.73;;;487.20;2380.80;;;;;;5074499;28;20027;-59
2023/10/15 07:28:44;;;;;;;18.85;12.25;;;486.70;2380.80;;;;;;5082871;28;20024;-59
2023/10/15 07:31:13;;;;;;;16.48;11.88;;;486.50;2380.80;;;;;;5084651;28;20048;-60
2023/10/15 07:33:39;;;;;;;22.60;13.38;;;486.40;2380.80;;;;;;5077323;28;20086;-57
2023/10/15 07:36:05;;;;;;;15.88;11.10;;;461.60;2380.80;;;;;;5079234;28;20068;-59
2023/10/15 07:38:33;;;;;;;16.25;10.95;;;461.40;2380.80;;;;;;5081003;28;20068;-58
2023/10/15 07:40:59;;;;;;;26.92;16.10;;;461.30;2380.80;;;;;;5080925;28;20109;-59
2023/10/15 07:43:25;;;;;;;22.10;14.20;;;461.20;2380.80;;;;;;5075710;28;20032;-58
2023/10/15 07:45:51;;;;;;;23.25;15.18;;;461.10;2380.80;;;;;;5089756;28;20492;-60
2023/10/15 07:48:17;;;;;;;27.63;16.40;;;461.00;2380.80;;;;;;5080016;28;20035;-60
2023/10/15 07:50:45;;;;;;;75.85;44.92;;;460.90;2380.80;;;;;;5081003;28;20103;-60
2023/10/15 07:53:12;;;;;;;39.20;24.05;;;460.90;2380.80;;;;;;5080239;28;20028;-56
2023/10/15 07:55:37;;;;;;;37.20;23.48;;;460.80;2380.80;;;;;;5081478;28;20032;-57
2023/10/15 07:58:03;;;;;;;24.40;17.63;;;436.10;2355.20;;;;;;5077077;28;20387;-57
2023/10/15 08:00:30;;;;;;;29.90;18.75;;;435.90;2355.20;;;;;;5076557;28;20131;-57
2023/10/15 08:02:59;;;;;;;17.85;13.10;;;435.80;2355.20;;;;;;5075187;28;20041;-58
2023/10/15 08:05:25;;;;;;;20.00;14.30;;;435.50;2355.20;;;;;;5078717;28;20426;-58
2023/10/15 08:07:52;;;;;;;23.40;14.48;;;435.50;2355.20;;;;;;5074208;28;20066;-58
2023/10/15 08:10:20;;;;;;;20.50;14.40;;;435.40;2355.20;;;;;;5076471;28;20016;-58
2023/10/15 08:12:51;;;;;;;22.10;15.65;;;435.30;2355.20;;;;;;5081818;28;20361;-57
2023/10/15 08:15:20;;;;;;;24.35;17.98;;;410.50;2355.20;;;;;;5074828;28;20493;-60
2023/10/15 08:17:46;;;;;;;32.00;17.42;;;410.50;2355.20;;;;;;5075296;28;20040;-58
2023/10/15 08:20:12;;;;;;;24.08;16.52;;;410.20;2355.20;;;;;;5082617;28;20030;-60
2023/10/15 08:22:40;;;;;;;24.38;16.92;;;410.20;2355.20;;;;;;5073884;28;20378;-58
2023/10/15 08:25:13;;;;;;;19.63;16.30;;;410.10;2355.20;;;;;;5075491;28;20051;-57
2023/10/15 08:27:44;;;;;;;26.77;19.58;;;410.00;2355.20;;;;;;5080285;28;20447;-58
2023/10/15 08:30:12;;;;;;;25.00;19.23;;;410.00;2355.20;;;;;;5077042;28;20048;-58
2023/10/15 08:32:39;;;;;;;26.25;20.10;;;410.00;2355.20;;;;;;5081128;28;20534;-59
2023/10/15 08:35:06;;;;;;;22.30;19.38;;;410.00;2355.20;;;;;;5084844;28;20473;-58
2023/10/15 08:37:35;;;;;;;21.42;17.48;;;410.20;2355.20;;;;;;5080312;28;20075;-58
2023/10/15 08:40:04;;;;;;;25.88;20.08;;;410.00;2355.20;;;;;;5073337;28;20035;-58
2023/10/15 08:42:36;;;;;;;24.77;20.08;;;410.00;2355.20;;;;;;5083183;28;20028;-57
2023/10/15 08:45:05;;;;;;;24.27;18.33;;;410.00;2355.20;;;;;;5079736;28;20107;-59
2023/10/15 08:47:35;;;;;;;29.60;25.20;;;410.00;2355.20;;;;;;5073722;28;20393;-58
2023/10/15 08:50:02;;;;;;;25.00;17.77;;;409.90;2355.20;;;;;;5078279;28;20095;-58
2023/10/15 08:52:30;;;;;;;20.77;17.63;;;410.00;2355.20;;;;;;5077301;28;20474;-58
2023/10/15 08:54:56;;;;;;;20.08;16.98;;;409.90;2355.20;;;;;;5085282;28;20069;-58
2023/10/15 08:57:25;;;;;;;18.52;15.95;;;409.90;2355.20;;;;;;5083157;28;20028;-57
2023/10/15 08:59:51;;;;;;;21.05;17.13;;;409.70;2355.20;;;;;;5072576;28;20024;-57
2023/10/15 09:02:18;;;;;;;26.30;18.30;;;409.80;2355.20;;;;;;5082763;28;20043;-58
2023/10/15 09:04:45;;;;;;;20.85;17.45;;;409.70;2355.20;;;;;;5076018;28;20462;-58
2023/10/15 09:07:17;;;;;;;29.67;22.73;;;409.60;2355.20;;;;;;5078491;28;20519;-58
2023/10/15 09:09:43;;;;;;;19.85;15.60;;;409.60;2355.20;;;;;;5081449;28;20056;-57
2023/10/15 09:12:12;;;;;;;18.40;14.60;;;409.70;2355.20;;;;;;5081763;28;20032;-58
2023/10/15 09:14:43;;;;;;;17.77;15.60;;;409.70;2355.20;;;;;;5081640;28;20544;-58
2023/10/15 09:17:14;;;;;;;14.88;13.27;;;409.80;2355.20;;;;;;5084931;28;20038;-58
2023/10/15 09:19:48;;;;;;;15.43;11.10;;;409.90;2355.20;;;;;;5079138;28;20040;-57
2023/10/15 09:22:14;;;;;;;14.32;11.02;;;409.90;2355.20;;;;;;5074408;28;20029;-59
2023/10/15 09:24:46;;;;;;;12.45;9.98;;;409.90;2355.20;;;;;;5074057;28;20504;-59
2023/10/15 09:27:13;;;;;;;12.80;10.25;;;409.90;2355.20;;;;;;5052055;28;20036;-59
2023/10/15 09:29:41;;;;;;;16.25;9.40;;;409.90;2355.20;;;;;;5070913;28;20139;-59
2023/10/15 09:32:07;;;;;;;14.75;10.77;;;409.90;2355.20;;;;;;5081299;28;20047;-59
2023/10/15 09:34:38;;;;;;;79.03;56.58;;;409.80;2355.20;;;;;;5078926;28;20020;-58
2023/10/15 09:37:06;;;;;;;282.02;187.20;;;409.80;2355.20;;;;;;5081435;28;20080;-56
2023/10/15 09:39:31;;;;;;;62.92;56.50;;;410.00;2355.20;;;;;;5074368;28;20156;-57
2023/10/15 09:42:02;;;;;;;22.02;19.77;;;410.00;2355.20;;;;;;5072857;28;20489;-60
2023/10/15 09:44:29;;;;;;;13.50;10.25;;;410.00;2355.20;;;;;;5076121;28;20067;-59
2023/10/15 09:46:56;;;;;;;13.65;10.48;;;410.00;2355.20;;;;;;5075100;28;20066;-59
2023/10/15 09:49:22;;;;;;;13.40;9.48;;;410.00;2355.20;;;;;;5079051;28;20032;-59
2023/10/15 09:51:48;;;;;;;16.33;12.55;;;409.90;2355.20;;;;;;5071951;28;20020;-58
2023/10/15 09:54:16;;;;;;;11.32;8.32;;;409.90;2355.20;;;;;;5078718;28;20020;-59
2023/10/15 09:56:45;;;;;;;11.35;8.35;;;409.90;2355.20;;;;;;5071888;28;20295;-58
2023/10/15 09:59:11;;;;;;;10.18;9.13;;;409.80;2355.20;;;;;;5071510;28;20390;-59
2023/10/15 10:01:44;;;;;;;12.85;11.10;;;409.90;2355.20;;;;;;5079456;28;20040;-58
2023/10/15 10:04:40;;;;;;;17.35;11.15;;;409.70;2355.20;;;;;;5077072;28;20506;-58
2023/10/15 10:07:58;;;;;;;9.45;7.65;;;409.60;2355.20;;;;;;5076034;28;20503;-57
2023/10/15 10:10:51;;;;;;;9.77;6.32;;;384.90;2329.60;;;;;;4979959;28;20834;-59
2023/10/15 10:13:25;;;;;;;7.30;5.57;;;384.90;2329.60;;;;;;4973299;28;20026;-59
2023/10/15 10:15:57;;;;;;;8.02;5.68;;;384.80;2329.60;;;;;;4979720;28;20042;-59
2023/10/15 10:18:25;;;;;;;20.05;15.20;;;384.80;2329.60;;;;;;4972462;28;20038;-59
2023/10/15 10:20:52;;;;;;;27.65;17.90;;;384.80;2329.60;;;;;;4975375;28;20561;-70
2023/10/15 10:23:19;;;;;;;23.27;17.50;;;409.60;2355.20;;;;;;4978097;28;20079;-68
2023/10/15 10:25:48;;;;;;;7.47;5.35;;;409.60;2355.20;;;;;;4981417;28;20026;-69
2023/10/15 10:28:15;;;;;;;6.35;4.95;;;409.70;2355.20;;;;;;4978524;28;20066;-69
2023/10/15 10:30:57;;;;;;;6.72;5.68;;;409.80;2355.20;;;;;;4974767;28;20130;-70
2023/10/15 10:33:42;;;;;;;10.35;7.93;;;409.70;2355.20;;;;;;4975738;28;20041;-70
2023/10/15 10:36:16;;;;;;;7.10;5.72;;;409.60;2355.20;;;;;;4973924;28;20027;-68
2023/10/15 10:38:43;;;;;;;6.93;4.38;;;409.60;2355.20;;;;;;4976001;28;20067;-68
2023/10/15 10:41:13;;;;;;;6.80;4.30;;;409.60;2355.20;;;;;;5026709;28;20036;-70
2023/10/15 10:43:42;;;;;;;8.95;5.63;;;409.70;2355.20;;;;;;5082585;28;20031;-68
2023/10/15 10:46:22;;;;;;;6.18;4.47;;;409.60;2355.20;;;;;;5076756;28;20028;-67
2023/10/15 10:49:05;;;;;;;7.32;4.90;;;409.70;2355.20;;;;;;5077699;28;20028;-68
2023/10/15 10:51:35;;;;;;;6.95;4.57;;;409.60;2355.20;;;;;;5078535;28;20086;-68
2023/10/15 10:54:03;;;;;;;12.60;8.60;;;409.90;2355.20;;;;;;5079045;28;20146;-69
2023/10/15 10:56:40;;;;;;;18.80;13.45;;;410.00;2355.20;;;;;;5076809;28;20040;-69
2023/10/15 10:59:06;;;;;;;5.57;4.20;;;410.00;2355.20;;;;;;5074878;28;20040;-68
2023/10/15 11:01:40;;;;;;;5.00;4.15;;;410.30;2355.20;;;;;;5070804;28;20044;-69
2023/10/15 11:04:10;;;;;;;8.95;4.05;;;410.30;2355.20;;;;;;5071973;28;20082;-69
2023/10/15 11:06:37;;;;;;;6.70;5.50;;;410.40;2355.20;;;;;;5080530;28;20043;-69
2023/10/15 11:09:16;;;;;;;7.00;4.22;;;410.40;2355.20;;;;;;5076343;28;20115;-68
2023/10/15 11:11:48;;;;;;;9.10;6.05;;;410.30;2355.20;;;;;;5077646;28;20672;-68
2023/10/15 11:14:15;;;;;;;7.13;5.47;;;410.30;2355.20;;;;;;5075287;28;20027;-69
2023/10/15 11:16:45;;;;;;;41.50;29.25;;;410.00;2355.20;;;;;;5074482;28;20052;-69
2023/10/15 11:19:17;;;;;;;51.40;33.63;;;410.20;2355.20;;;;;;5080293;28;20028;-69
2023/10/15 11:21:43;;;;;;;17.27;12.25;;;409.90;2355.20;;;;;;5073875;28;20528;-70
2023/10/15 11:24:10;;;;;;;11.55;8.57;;;410.20;2355.20;;;;;;5076266;28;20036;-70
2023/10/15 11:26:41;;;;;;;10.02;7.00;;;410.10;2355.20;;;;;;5083814;28;20020;-69
2023/10/15 11:29:09;;;;;;;10.00;8.13;;;410.00;2355.20;;;;;;5077444;28;20051;-68
2023/10/15 11:31:36;;;;;;;17.42;12.77;;;410.10;2355.20;;;;;;5079030;28;20512;-68
2023/10/15 11:34:02;;;;;;;9.70;8.20;;;410.00;2355.20;;;;;;5079108;28;20035;-69
2023/10/15 11:36:34;;;;;;;16.25;14.30;;;410.00;2355.20;;;;;;5079892;28;20024;-67
2023/10/15 11:39:09;;;;;;;14.15;12.30;;;410.00;2355.20;;;;;;5083807;28;20097;-69
2023/10/15 11:41:39;;;;;;;22.05;14.50;;;409.90;2355.20;;;;;;5079572;28;20035;-70
2023/10/15 11:44:08;;;;;;;8.68;5.85;;;410.20;2355.20;;;;;;5080891;28;21380;-69
2023/10/15 11:46:37;;;;;;;6.63;4.82;;;410.20;2355.20;;;;;;5077863;28;20469;-78
2023/10/15 11:49:03;;;;;;;5.75;4.75;;;410.20;2355.20;;;;;;5078599;28;20039;-76
2023/10/15 11:51:29;;;;;;;6.35;4.07;;;410.20;2355.20;;;;;;5064800;28;20028;-72
2023/10/15 11:54:02;;;;;;;14.93;8.50;;;410.50;2355.20;;;;;;5080550;28;20028;-77
2023/10/15 11:56:34;;;;;;;13.40;4.93;;;410.30;2355.20;;;;;;5079687;28;20028;-75
2023/10/15 11:59:00;;;;;;;11.23;6.95;;;410.20;2355.20;;;;;;5088900;28;20081;-75
2023/10/15 12:01:29;;;;;;;6.43;4.78;;;410.00;2355.20;;;;;;5081254;28;20398;-75
2023/10/15 12:04:00;;;;;;;10.55;8.13;;;409.90;2355.20;;;;;;5083328;28;20486;-73
2023/10/15 12:06:26;;;;;;;7.70;5.85;;;409.90;2355.20;;;;;;5084017;28;20024;-75
2023/10/15 12:08:52;;;;;;;13.45;11.50;;;409.90;2355.20;;;;;;5089312;28;20684;-75
2023/10/15 12:11:19;;;;;;;11.20;9.50;;;409.80;2355.20;;;;;;5088251;28;20024;-75
2023/10/15 12:13:47;;;;;;;11.95;9.82;;;409.70;2355.20;;;;;;5081648;28;20473;-75
2023/10/15 12:16:14;;;;;;;13.15;6.82;;;409.70;2355.20;;;;;;5098396;28;20031;-73
2023/10/15 12:18:39;;;;;;;8.88;6.32;;;409.60;2355.20;;;;;;5100642;28;20032;-75
2023/10/15 12:21:06;;;;;;;21.48;15.05;;;384.90;2329.60;;;;;;5100779;28;20040;-74
2023/10/15 12:23:32;;;;;;;8.65;4.93;;;409.60;2355.20;;;;;;5100295;28;20024;-73
2023/10/15 12:26:00;;;;;;;8.20;5.10;;;384.90;2329.60;;;;;;5098948;28;20034;-74
2023/10/15 12:28:26;;;;;;;8.77;6.57;;;384.80;2329.60;;;;;;5092190;28;20027;-73
2023/10/15 12:30:53;;;;;;;10.45;4.97;;;384.80;2329.60;;;;;;5084913;28;20044;-73